sensor_id;sensor_type;location;lat;lon;timestamp;P1;durP1;ratioP1;P2;durP2;ratioP2
42760;SDS011;31672;47.638;19.026;2022-12-29T00:01:26;15.10;;;6.73;;
42760;SDS011;31672;47.638;19.026;2022-12-29T00:06:29;16.83;;;8.07;;
42760;SDS011;31672;47.638;19.026;2022-12-29T00:11:33;17.93;;;9.00;;
42760;SDS011;31672;47.638;19.026;2022-12-29T00:16:36;19.73;;;8.83;;
42760;SDS011;31672;47.638;19.026;2022-12-29T00:21:40;18.97;;;8.13;;
42760;SDS011;31672;47.638;19.026;2022-12-29T00:32:23;17.23;;;6.70;;
42760;SDS011;31672;47.638;19.026;2022-12-29T00:37:46;17.00;;;8.52;;
42760;SDS011;31672;47.638;19.026;2022-12-29T00:43:09;17.47;;;8.10;;
42760;SDS011;31672;47.638;19.026;2022-12-29T00:48:30;12.03;;;5.53;;
42760;SDS011;31672;47.638;19.026;2022-12-29T00:53:52;18.83;;;8.60;;
42760;SDS011;31672;47.638;19.026;2022-12-29T00:58:55;17.03;;;7.83;;
42760;SDS011;31672;47.638;19.026;2022-12-29T01:04:02;19.47;;;9.13;;
42760;SDS011;31672;47.638;19.026;2022-12-29T01:09:06;18.30;;;7.03;;
42760;SDS011;31672;47.638;19.026;2022-12-29T01:14:29;20.10;;;8.27;;
42760;SDS011;31672;47.638;19.026;2022-12-29T01:19:32;24.27;;;9.27;;
42760;SDS011;31672;47.638;19.026;2022-12-29T01:24:35;20.13;;;8.97;;
42760;SDS011;31672;47.638;19.026;2022-12-29T01:29:38;17.70;;;8.60;;
42760;SDS011;31672;47.638;19.026;2022-12-29T01:34:41;21.17;;;10.00;;
42760;SDS011;31672;47.638;19.026;2022-12-29T01:39:44;20.53;;;8.07;;
42760;SDS011;31672;47.638;19.026;2022-12-29T01:49:58;20.43;;;9.80;;
42760;SDS011;31672;47.638;19.026;2022-12-29T01:55:19;17.38;;;9.10;;
42760;SDS011;31672;47.638;19.026;2022-12-29T02:00:23;23.80;;;9.10;;
42760;SDS011;31672;47.638;19.026;2022-12-29T02:05:43;20.53;;;9.40;;
42760;SDS011;31672;47.638;19.026;2022-12-29T02:10:51;23.40;;;9.97;;
42760;SDS011;31672;47.638;19.026;2022-12-29T02:37:42;27.60;;;11.63;;
42760;SDS011;31672;47.638;19.026;2022-12-29T02:48:17;18.07;;;7.60;;
42760;SDS011;31672;47.638;19.026;2022-12-29T02:53:46;18.97;;;8.83;;
42760;SDS011;31672;47.638;19.026;2022-12-29T02:59:09;19.07;;;9.00;;
42760;SDS011;31672;47.638;19.026;2022-12-29T03:15:33;17.65;;;9.07;;
42760;SDS011;31672;47.638;19.026;2022-12-29T03:21:51;19.37;;;8.43;;
42760;SDS011;31672;47.638;19.026;2022-12-29T03:27:17;21.17;;;7.80;;
42760;SDS011;31672;47.638;19.026;2022-12-29T03:32:32;15.27;;;7.33;;
42760;SDS011;31672;47.638;19.026;2022-12-29T03:37:51;20.30;;;9.00;;
42760;SDS011;31672;47.638;19.026;2022-12-29T03:48:19;18.33;;;7.47;;
42760;SDS011;31672;47.638;19.026;2022-12-29T03:53:22;25.90;;;7.97;;
42760;SDS011;31672;47.638;19.026;2022-12-29T03:58:25;17.47;;;7.77;;
42760;SDS011;31672;47.638;19.026;2022-12-29T04:03:29;18.07;;;7.77;;
42760;SDS011;31672;47.638;19.026;2022-12-29T04:08:33;18.40;;;8.13;;
42760;SDS011;31672;47.638;19.026;2022-12-29T04:13:36;25.40;;;9.33;;
42760;SDS011;31672;47.638;19.026;2022-12-29T04:18:43;24.00;;;9.40;;
42760;SDS011;31672;47.638;19.026;2022-12-29T04:23:46;17.13;;;7.17;;
42760;SDS011;31672;47.638;19.026;2022-12-29T04:28:49;17.40;;;7.90;;
42760;SDS011;31672;47.638;19.026;2022-12-29T04:33:52;24.73;;;9.87;;
42760;SDS011;31672;47.638;19.026;2022-12-29T04:38:55;24.47;;;10.97;;
42760;SDS011;31672;47.638;19.026;2022-12-29T04:43:58;49.17;;;17.17;;
42760;SDS011;31672;47.638;19.026;2022-12-29T04:49:01;45.07;;;16.27;;
42760;SDS011;31672;47.638;19.026;2022-12-29T04:54:10;41.77;;;16.07;;
42760;SDS011;31672;47.638;19.026;2022-12-29T04:59:13;59.87;;;19.03;;
42760;SDS011;31672;47.638;19.026;2022-12-29T05:04:16;34.33;;;14.60;;
42760;SDS011;31672;47.638;19.026;2022-12-29T05:09:19;28.63;;;11.90;;
42760;SDS011;31672;47.638;19.026;2022-12-29T05:14:22;22.87;;;11.23;;
42760;SDS011;31672;47.638;19.026;2022-12-29T05:19:25;25.10;;;10.63;;
42760;SDS011;31672;47.638;19.026;2022-12-29T05:24:28;26.87;;;11.23;;
42760;SDS011;31672;47.638;19.026;2022-12-29T05:29:31;22.53;;;9.90;;
42760;SDS011;31672;47.638;19.026;2022-12-29T05:34:34;25.33;;;9.90;;
42760;SDS011;31672;47.638;19.026;2022-12-29T05:39:37;27.63;;;11.27;;
42760;SDS011;31672;47.638;19.026;2022-12-29T05:44:40;28.67;;;11.90;;
42760;SDS011;31672;47.638;19.026;2022-12-29T05:49:44;24.47;;;11.17;;
42760;SDS011;31672;47.638;19.026;2022-12-29T05:55:00;25.07;;;10.50;;
42760;SDS011;31672;47.638;19.026;2022-12-29T06:00:04;29.53;;;12.33;;
42760;SDS011;31672;47.638;19.026;2022-12-29T06:05:08;26.53;;;11.17;;
42760;SDS011;31672;47.638;19.026;2022-12-29T06:10:12;29.17;;;11.67;;
42760;SDS011;31672;47.638;19.026;2022-12-29T06:15:15;73.13;;;22.70;;
42760;SDS011;31672;47.638;19.026;2022-12-29T06:20:19;28.57;;;10.47;;
42760;SDS011;31672;47.638;19.026;2022-12-29T06:25:22;30.87;;;11.77;;
42760;SDS011;31672;47.638;19.026;2022-12-29T06:30:25;32.73;;;10.90;;
42760;SDS011;31672;47.638;19.026;2022-12-29T06:35:28;27.50;;;10.60;;
42760;SDS011;31672;47.638;19.026;2022-12-29T06:40:31;28.60;;;13.13;;
42760;SDS011;31672;47.638;19.026;2022-12-29T06:45:34;39.40;;;13.43;;
42760;SDS011;31672;47.638;19.026;2022-12-29T06:50:39;39.10;;;13.37;;
42760;SDS011;31672;47.638;19.026;2022-12-29T06:55:43;43.77;;;14.77;;
42760;SDS011;31672;47.638;19.026;2022-12-29T07:00:46;37.07;;;12.90;;
42760;SDS011;31672;47.638;19.026;2022-12-29T07:05:49;51.33;;;17.70;;
42760;SDS011;31672;47.638;19.026;2022-12-29T07:10:53;56.13;;;19.07;;
42760;SDS011;31672;47.638;19.026;2022-12-29T07:15:56;61.70;;;19.87;;
42760;SDS011;31672;47.638;19.026;2022-12-29T07:20:59;79.77;;;23.97;;
42760;SDS011;31672;47.638;19.026;2022-12-29T07:26:05;103.77;;;31.20;;
42760;SDS011;31672;47.638;19.026;2022-12-29T07:31:16;56.67;;;20.07;;
42760;SDS011;31672;47.638;19.026;2022-12-29T07:36:22;112.00;;;36.37;;
42760;SDS011;31672;47.638;19.026;2022-12-29T07:41:31;81.07;;;28.47;;
42760;SDS011;31672;47.638;19.026;2022-12-29T07:46:35;66.90;;;24.57;;
42760;SDS011;31672;47.638;19.026;2022-12-29T07:51:58;80.60;;;29.47;;
42760;SDS011;31672;47.638;19.026;2022-12-29T07:57:01;62.73;;;27.73;;
42760;SDS011;31672;47.638;19.026;2022-12-29T08:02:05;59.43;;;22.50;;
42760;SDS011;31672;47.638;19.026;2022-12-29T08:07:14;41.77;;;19.40;;
42760;SDS011;31672;47.638;19.026;2022-12-29T08:12:17;66.27;;;24.47;;
42760;SDS011;31672;47.638;19.026;2022-12-29T08:17:20;40.90;;;18.17;;
42760;SDS011;31672;47.638;19.026;2022-12-29T08:22:23;37.63;;;16.83;;
42760;SDS011;31672;47.638;19.026;2022-12-29T08:27:27;37.83;;;17.50;;
42760;SDS011;31672;47.638;19.026;2022-12-29T08:32:30;41.57;;;18.63;;
42760;SDS011;31672;47.638;19.026;2022-12-29T08:37:33;45.27;;;21.27;;
42760;SDS011;31672;47.638;19.026;2022-12-29T08:42:37;32.03;;;15.80;;
42760;SDS011;31672;47.638;19.026;2022-12-29T08:47:40;23.97;;;12.50;;
42760;SDS011;31672;47.638;19.026;2022-12-29T08:52:43;38.00;;;17.50;;
42760;SDS011;31672;47.638;19.026;2022-12-29T08:57:46;32.40;;;15.07;;
42760;SDS011;31672;47.638;19.026;2022-12-29T09:02:49;65.10;;;23.17;;
42760;SDS011;31672;47.638;19.026;2022-12-29T09:07:52;30.87;;;14.63;;
42760;SDS011;31672;47.638;19.026;2022-12-29T09:12:55;36.03;;;15.13;;
42760;SDS011;31672;47.638;19.026;2022-12-29T09:17:58;30.23;;;14.47;;
42760;SDS011;31672;47.638;19.026;2022-12-29T09:23:01;46.50;;;19.93;;
42760;SDS011;31672;47.638;19.026;2022-12-29T09:28:05;46.47;;;21.77;;
42760;SDS011;31672;47.638;19.026;2022-12-29T09:33:09;32.37;;;15.40;;
42760;SDS011;31672;47.638;19.026;2022-12-29T09:38:13;30.20;;;14.27;;
42760;SDS011;31672;47.638;19.026;2022-12-29T09:43:28;36.37;;;16.57;;
42760;SDS011;31672;47.638;19.026;2022-12-29T09:48:52;31.90;;;16.00;;
42760;SDS011;31672;47.638;19.026;2022-12-29T10:00:00;39.10;;;18.97;;
42760;SDS011;31672;47.638;19.026;2022-12-29T10:05:50;32.23;;;15.93;;
42760;SDS011;31672;47.638;19.026;2022-12-29T10:10:56;36.83;;;17.57;;
42760;SDS011;31672;47.638;19.026;2022-12-29T10:26:57;36.07;;;17.00;;
42760;SDS011;31672;47.638;19.026;2022-12-29T10:32:27;30.00;;;15.80;;
42760;SDS011;31672;47.638;19.026;2022-12-29T10:37:47;29.30;;;14.93;;
42760;SDS011;31672;47.638;19.026;2022-12-29T10:42:55;24.50;;;11.80;;
42760;SDS011;31672;47.638;19.026;2022-12-29T10:48:01;27.50;;;13.03;;
42760;SDS011;31672;47.638;19.026;2022-12-29T10:53:15;20.20;;;12.10;;
42760;SDS011;31672;47.638;19.026;2022-12-29T10:58:25;25.47;;;12.97;;
42760;SDS011;31672;47.638;19.026;2022-12-29T11:03:36;29.70;;;15.27;;
42760;SDS011;31672;47.638;19.026;2022-12-29T11:08:52;25.30;;;13.90;;
42760;SDS011;31672;47.638;19.026;2022-12-29T11:19:23;24.93;;;13.30;;
42760;SDS011;31672;47.638;19.026;2022-12-29T11:24:29;25.40;;;13.47;;
42760;SDS011;31672;47.638;19.026;2022-12-29T11:29:39;26.50;;;13.87;;
42760;SDS011;31672;47.638;19.026;2022-12-29T11:34:44;25.27;;;13.33;;
42760;SDS011;31672;47.638;19.026;2022-12-29T11:40:04;31.03;;;15.57;;
42760;SDS011;31672;47.638;19.026;2022-12-29T11:45:20;28.43;;;13.63;;
42760;SDS011;31672;47.638;19.026;2022-12-29T11:50:39;24.67;;;13.80;;
42760;SDS011;31672;47.638;19.026;2022-12-29T11:55:54;43.53;;;18.47;;
42760;SDS011;31672;47.638;19.026;2022-12-29T12:06:43;30.20;;;15.80;;
42760;SDS011;31672;47.638;19.026;2022-12-29T12:17:29;28.63;;;13.80;;
42760;SDS011;31672;47.638;19.026;2022-12-29T12:22:41;27.07;;;14.07;;
42760;SDS011;31672;47.638;19.026;2022-12-29T12:33:38;27.03;;;14.80;;
42760;SDS011;31672;47.638;19.026;2022-12-29T13:00:59;32.97;;;18.77;;
42760;SDS011;31672;47.638;19.026;2022-12-29T13:12:27;37.70;;;17.03;;
42760;SDS011;31672;47.638;19.026;2022-12-29T13:29:17;27.50;;;14.33;;
42760;SDS011;31672;47.638;19.026;2022-12-29T13:40:32;27.23;;;14.20;;
42760;SDS011;31672;47.638;19.026;2022-12-29T13:45:41;26.30;;;13.60;;
42760;SDS011;31672;47.638;19.026;2022-12-29T13:50:48;34.50;;;16.83;;
42760;SDS011;31672;47.638;19.026;2022-12-29T14:01:52;31.27;;;15.83;;
42760;SDS011;31672;47.638;19.026;2022-12-29T14:07:27;33.53;;;16.40;;
42760;SDS011;31672;47.638;19.026;2022-12-29T14:12:38;34.30;;;17.10;;
42760;SDS011;31672;47.638;19.026;2022-12-29T14:17:45;42.53;;;20.43;;
42760;SDS011;31672;47.638;19.026;2022-12-29T14:29:43;32.50;;;15.77;;
42760;SDS011;31672;47.638;19.026;2022-12-29T14:34:48;31.27;;;15.30;;
42760;SDS011;31672;47.638;19.026;2022-12-29T14:45:28;35.37;;;17.90;;
42760;SDS011;31672;47.638;19.026;2022-12-29T14:55:45;34.57;;;15.60;;
42760;SDS011;31672;47.638;19.026;2022-12-29T15:00:55;43.63;;;18.23;;
42760;SDS011;31672;47.638;19.026;2022-12-29T15:11:15;43.57;;;20.63;;
42760;SDS011;31672;47.638;19.026;2022-12-29T15:16:39;46.37;;;21.27;;
42760;SDS011;31672;47.638;19.026;2022-12-29T15:21:43;34.97;;;17.47;;
42760;SDS011;31672;47.638;19.026;2022-12-29T15:26:51;68.70;;;27.03;;
42760;SDS011;31672;47.638;19.026;2022-12-29T15:32:00;54.53;;;21.07;;
42760;SDS011;31672;47.638;19.026;2022-12-29T15:37:23;63.27;;;24.07;;
42760;SDS011;31672;47.638;19.026;2022-12-29T15:47:56;56.30;;;23.03;;
42760;SDS011;31672;47.638;19.026;2022-12-29T15:53:01;52.63;;;22.10;;
42760;SDS011;31672;47.638;19.026;2022-12-29T15:58:24;57.47;;;24.03;;
42760;SDS011;31672;47.638;19.026;2022-12-29T16:03:33;54.40;;;20.57;;
42760;SDS011;31672;47.638;19.026;2022-12-29T16:08:39;48.83;;;20.43;;
42760;SDS011;31672;47.638;19.026;2022-12-29T16:13:42;53.93;;;23.53;;
42760;SDS011;31672;47.638;19.026;2022-12-29T16:18:47;49.20;;;21.40;;
42760;SDS011;31672;47.638;19.026;2022-12-29T16:29:11;54.83;;;21.30;;
42760;SDS011;31672;47.638;19.026;2022-12-29T16:34:27;60.30;;;22.33;;
42760;SDS011;31672;47.638;19.026;2022-12-29T16:39:36;86.00;;;31.37;;
42760;SDS011;31672;47.638;19.026;2022-12-29T16:44:41;87.23;;;30.33;;
42760;SDS011;31672;47.638;19.026;2022-12-29T16:49:47;77.93;;;30.97;;
42760;SDS011;31672;47.638;19.026;2022-12-29T16:54:54;71.93;;;28.47;;
42760;SDS011;31672;47.638;19.026;2022-12-29T17:00:07;91.10;;;33.63;;
42760;SDS011;31672;47.638;19.026;2022-12-29T17:05:21;76.40;;;30.30;;
42760;SDS011;31672;47.638;19.026;2022-12-29T17:10:24;91.37;;;33.87;;
42760;SDS011;31672;47.638;19.026;2022-12-29T17:15:46;66.83;;;26.03;;
42760;SDS011;31672;47.638;19.026;2022-12-29T17:20:49;94.90;;;31.77;;
42760;SDS011;31672;47.638;19.026;2022-12-29T17:25:52;109.83;;;34.07;;
42760;SDS011;31672;47.638;19.026;2022-12-29T17:31:00;90.07;;;36.37;;
42760;SDS011;31672;47.638;19.026;2022-12-29T17:36:08;80.85;;;29.00;;
42760;SDS011;31672;47.638;19.026;2022-12-29T17:41:13;66.20;;;26.67;;
42760;SDS011;31672;47.638;19.026;2022-12-29T17:46:16;61.40;;;25.83;;
42760;SDS011;31672;47.638;19.026;2022-12-29T17:51:20;59.37;;;25.50;;
42760;SDS011;31672;47.638;19.026;2022-12-29T17:56:24;53.43;;;23.13;;
42760;SDS011;31672;47.638;19.026;2022-12-29T18:01:27;66.60;;;27.60;;
42760;SDS011;31672;47.638;19.026;2022-12-29T18:06:37;69.43;;;28.40;;
42760;SDS011;31672;47.638;19.026;2022-12-29T18:11:41;50.00;;;22.00;;
42760;SDS011;31672;47.638;19.026;2022-12-29T18:16:46;70.40;;;29.80;;
42760;SDS011;31672;47.638;19.026;2022-12-29T18:21:50;71.90;;;30.63;;
42760;SDS011;31672;47.638;19.026;2022-12-29T18:26:53;77.10;;;30.23;;
42760;SDS011;31672;47.638;19.026;2022-12-29T18:31:55;65.67;;;27.20;;
42760;SDS011;31672;47.638;19.026;2022-12-29T18:36:58;42.10;;;17.57;;
42760;SDS011;31672;47.638;19.026;2022-12-29T18:42:04;48.87;;;21.40;;
42760;SDS011;31672;47.638;19.026;2022-12-29T18:47:08;83.40;;;27.33;;
42760;SDS011;31672;47.638;19.026;2022-12-29T18:52:11;72.93;;;26.50;;
42760;SDS011;31672;47.638;19.026;2022-12-29T18:57:14;41.30;;;18.40;;
42760;SDS011;31672;47.638;19.026;2022-12-29T19:02:17;51.27;;;20.70;;
42760;SDS011;31672;47.638;19.026;2022-12-29T19:07:20;43.83;;;19.13;;
42760;SDS011;31672;47.638;19.026;2022-12-29T19:12:24;61.70;;;23.83;;
42760;SDS011;31672;47.638;19.026;2022-12-29T19:17:29;58.07;;;25.07;;
42760;SDS011;31672;47.638;19.026;2022-12-29T19:22:32;50.87;;;21.77;;
42760;SDS011;31672;47.638;19.026;2022-12-29T19:27:35;40.60;;;17.10;;
42760;SDS011;31672;47.638;19.026;2022-12-29T19:32:38;58.60;;;22.33;;
42760;SDS011;31672;47.638;19.026;2022-12-29T19:37:42;60.33;;;24.00;;
42760;SDS011;31672;47.638;19.026;2022-12-29T19:42:45;63.73;;;24.07;;
42760;SDS011;31672;47.638;19.026;2022-12-29T19:47:48;52.47;;;21.70;;
42760;SDS011;31672;47.638;19.026;2022-12-29T19:52:50;43.47;;;17.77;;
42760;SDS011;31672;47.638;19.026;2022-12-29T19:58:05;41.13;;;16.77;;
42760;SDS011;31672;47.638;19.026;2022-12-29T20:03:08;44.57;;;18.13;;
42760;SDS011;31672;47.638;19.026;2022-12-29T20:08:12;36.43;;;14.60;;
42760;SDS011;31672;47.638;19.026;2022-12-29T20:13:15;40.73;;;16.23;;
42760;SDS011;31672;47.638;19.026;2022-12-29T20:18:18;36.63;;;17.33;;
42760;SDS011;31672;47.638;19.026;2022-12-29T20:23:30;39.93;;;15.03;;
42760;SDS011;31672;47.638;19.026;2022-12-29T20:28:34;45.43;;;19.47;;
42760;SDS011;31672;47.638;19.026;2022-12-29T20:33:37;76.67;;;30.60;;
42760;SDS011;31672;47.638;19.026;2022-12-29T20:38:41;91.27;;;35.77;;
42760;SDS011;31672;47.638;19.026;2022-12-29T20:43:45;76.53;;;32.80;;
42760;SDS011;31672;47.638;19.026;2022-12-29T20:48:48;69.23;;;27.47;;
42760;SDS011;31672;47.638;19.026;2022-12-29T20:53:52;67.03;;;26.63;;
42760;SDS011;31672;47.638;19.026;2022-12-29T20:58:55;44.47;;;21.13;;
42760;SDS011;31672;47.638;19.026;2022-12-29T21:04:18;40.73;;;16.90;;
42760;SDS011;31672;47.638;19.026;2022-12-29T21:09:21;31.93;;;14.93;;
42760;SDS011;31672;47.638;19.026;2022-12-29T21:14:25;52.00;;;21.23;;
42760;SDS011;31672;47.638;19.026;2022-12-29T21:19:29;48.60;;;20.87;;
42760;SDS011;31672;47.638;19.026;2022-12-29T21:24:32;33.07;;;14.70;;
42760;SDS011;31672;47.638;19.026;2022-12-29T21:29:36;37.00;;;15.13;;
42760;SDS011;31672;47.638;19.026;2022-12-29T21:34:38;27.33;;;12.27;;
42760;SDS011;31672;47.638;19.026;2022-12-29T21:39:42;39.47;;;17.53;;
42760;SDS011;31672;47.638;19.026;2022-12-29T21:44:45;34.40;;;15.07;;
42760;SDS011;31672;47.638;19.026;2022-12-29T21:50:06;35.07;;;14.23;;
42760;SDS011;31672;47.638;19.026;2022-12-29T21:55:09;32.17;;;15.03;;
42760;SDS011;31672;47.638;19.026;2022-12-29T22:00:12;28.87;;;12.57;;
42760;SDS011;31672;47.638;19.026;2022-12-29T22:10:56;59.03;;;26.70;;
42760;SDS011;31672;47.638;19.026;2022-12-29T22:16:17;80.43;;;33.77;;
42760;SDS011;31672;47.638;19.026;2022-12-29T22:21:20;59.80;;;25.03;;
42760;SDS011;31672;47.638;19.026;2022-12-29T22:26:24;43.57;;;18.23;;
42760;SDS011;31672;47.638;19.026;2022-12-29T22:31:28;82.10;;;31.63;;
42760;SDS011;31672;47.638;19.026;2022-12-29T22:36:34;56.13;;;23.83;;
42760;SDS011;31672;47.638;19.026;2022-12-29T22:41:37;75.43;;;29.53;;
42760;SDS011;31672;47.638;19.026;2022-12-29T22:46:40;56.13;;;22.60;;
42760;SDS011;31672;47.638;19.026;2022-12-29T22:51:43;58.97;;;23.83;;
42760;SDS011;31672;47.638;19.026;2022-12-29T22:56:47;58.43;;;26.63;;
42760;SDS011;31672;47.638;19.026;2022-12-29T23:01:50;61.33;;;28.63;;
42760;SDS011;31672;47.638;19.026;2022-12-29T23:06:53;77.57;;;31.50;;
42760;SDS011;31672;47.638;19.026;2022-12-29T23:11:56;65.53;;;30.47;;
42760;SDS011;31672;47.638;19.026;2022-12-29T23:17:01;56.70;;;24.40;;
42760;SDS011;31672;47.638;19.026;2022-12-29T23:22:04;63.37;;;28.37;;
42760;SDS011;31672;47.638;19.026;2022-12-29T23:27:06;59.40;;;26.40;;
42760;SDS011;31672;47.638;19.026;2022-12-29T23:32:09;51.87;;;26.80;;
42760;SDS011;31672;47.638;19.026;2022-12-29T23:37:12;54.50;;;27.50;;
42760;SDS011;31672;47.638;19.026;2022-12-29T23:42:15;69.17;;;29.10;;
42760;SDS011;31672;47.638;19.026;2022-12-29T23:47:18;64.40;;;30.13;;
42760;SDS011;31672;47.638;19.026;2022-12-29T23:52:21;58.47;;;25.47;;
42760;SDS011;31672;47.638;19.026;2022-12-29T23:57:24;61.13;;;28.00;;
